sensor_id;sensor_type;location;lat;lon;timestamp;P1;durP1;ratioP1;P2;durP2;ratioP2
52210;SDS011;38179;52.756;6.906;2023-11-19T00:00:50;38.33;;;25.58;;
52210;SDS011;38179;52.756;6.906;2023-11-19T00:03:16;35.60;;;25.25;;
52210;SDS011;38179;52.756;6.906;2023-11-19T00:05:43;34.92;;;25.52;;
52210;SDS011;38179;52.756;6.906;2023-11-19T00:08:09;37.38;;;26.17;;
52210;SDS011;38179;52.756;6.906;2023-11-19T00:10:35;35.92;;;25.88;;
52210;SDS011;38179;52.756;6.906;2023-11-19T00:13:01;36.92;;;26.75;;
52210;SDS011;38179;52.756;6.906;2023-11-19T00:15:30;37.35;;;25.40;;
52210;SDS011;38179;52.756;6.906;2023-11-19T00:17:56;34.63;;;25.17;;
52210;SDS011;38179;52.756;6.906;2023-11-19T00:20:22;35.25;;;23.98;;
52210;SDS011;38179;52.756;6.906;2023-11-19T00:22:48;35.85;;;24.63;;
52210;SDS011;38179;52.756;6.906;2023-11-19T00:25:16;33.70;;;25.45;;
52210;SDS011;38179;52.756;6.906;2023-11-19T00:27:43;37.20;;;24.88;;
52210;SDS011;38179;52.756;6.906;2023-11-19T00:30:12;36.47;;;25.92;;
52210;SDS011;38179;52.756;6.906;2023-11-19T00:32:39;38.83;;;26.17;;
52210;SDS011;38179;52.756;6.906;2023-11-19T00:35:08;37.70;;;25.50;;
52210;SDS011;38179;52.756;6.906;2023-11-19T00:37:41;39.88;;;26.70;;
52210;SDS011;38179;52.756;6.906;2023-11-19T00:40:08;45.50;;;28.30;;
52210;SDS011;38179;52.756;6.906;2023-11-19T00:42:35;46.25;;;27.20;;
52210;SDS011;38179;52.756;6.906;2023-11-19T00:45:01;44.35;;;29.27;;
52210;SDS011;38179;52.756;6.906;2023-11-19T00:47:27;45.85;;;29.17;;
52210;SDS011;38179;52.756;6.906;2023-11-19T00:49:53;45.13;;;28.27;;
52210;SDS011;38179;52.756;6.906;2023-11-19T00:52:19;43.92;;;28.77;;
52210;SDS011;38179;52.756;6.906;2023-11-19T00:54:45;43.03;;;29.55;;
52210;SDS011;38179;52.756;6.906;2023-11-19T00:57:11;42.67;;;29.58;;
52210;SDS011;38179;52.756;6.906;2023-11-19T00:59:37;47.85;;;29.73;;
52210;SDS011;38179;52.756;6.906;2023-11-19T01:02:03;46.05;;;28.95;;
52210;SDS011;38179;52.756;6.906;2023-11-19T01:04:34;42.33;;;27.65;;
52210;SDS011;38179;52.756;6.906;2023-11-19T01:07:04;43.00;;;29.17;;
52210;SDS011;38179;52.756;6.906;2023-11-19T01:09:31;41.92;;;28.42;;
52210;SDS011;38179;52.756;6.906;2023-11-19T01:12:00;43.28;;;29.83;;
52210;SDS011;38179;52.756;6.906;2023-11-19T01:14:27;40.78;;;28.25;;
52210;SDS011;38179;52.756;6.906;2023-11-19T01:16:53;41.35;;;28.45;;
52210;SDS011;38179;52.756;6.906;2023-11-19T01:19:19;36.60;;;27.00;;
52210;SDS011;38179;52.756;6.906;2023-11-19T01:21:52;41.30;;;26.90;;
52210;SDS011;38179;52.756;6.906;2023-11-19T01:26:44;37.78;;;26.35;;
52210;SDS011;38179;52.756;6.906;2023-11-19T01:29:14;37.30;;;27.45;;
52210;SDS011;38179;52.756;6.906;2023-11-19T01:31:41;41.10;;;28.05;;
52210;SDS011;38179;52.756;6.906;2023-11-19T01:34:08;45.30;;;28.63;;
52210;SDS011;38179;52.756;6.906;2023-11-19T01:36:35;41.00;;;28.52;;
52210;SDS011;38179;52.756;6.906;2023-11-19T01:39:01;44.50;;;29.33;;
52210;SDS011;38179;52.756;6.906;2023-11-19T01:41:28;44.88;;;28.05;;
52210;SDS011;38179;52.756;6.906;2023-11-19T01:43:54;46.00;;;29.05;;
52210;SDS011;38179;52.756;6.906;2023-11-19T01:46:23;43.63;;;28.17;;
52210;SDS011;38179;52.756;6.906;2023-11-19T01:48:49;49.65;;;27.83;;
52210;SDS011;38179;52.756;6.906;2023-11-19T01:51:14;41.97;;;28.38;;
52210;SDS011;38179;52.756;6.906;2023-11-19T01:53:42;44.67;;;27.23;;
52210;SDS011;38179;52.756;6.906;2023-11-19T01:56:09;43.53;;;27.77;;
52210;SDS011;38179;52.756;6.906;2023-11-19T01:58:37;40.17;;;26.83;;
52210;SDS011;38179;52.756;6.906;2023-11-19T02:01:04;44.38;;;27.55;;
52210;SDS011;38179;52.756;6.906;2023-11-19T02:03:32;42.13;;;26.05;;
52210;SDS011;38179;52.756;6.906;2023-11-19T02:06:01;41.65;;;26.05;;
52210;SDS011;38179;52.756;6.906;2023-11-19T02:08:29;41.47;;;26.25;;
52210;SDS011;38179;52.756;6.906;2023-11-19T02:10:55;46.92;;;27.70;;
52210;SDS011;38179;52.756;6.906;2023-11-19T02:13:25;39.38;;;25.80;;
52210;SDS011;38179;52.756;6.906;2023-11-19T02:15:52;42.10;;;25.83;;
52210;SDS011;38179;52.756;6.906;2023-11-19T02:18:18;42.17;;;24.67;;
52210;SDS011;38179;52.756;6.906;2023-11-19T02:20:45;42.60;;;24.25;;
52210;SDS011;38179;52.756;6.906;2023-11-19T02:23:12;38.50;;;24.13;;
52210;SDS011;38179;52.756;6.906;2023-11-19T02:25:39;38.00;;;24.27;;
52210;SDS011;38179;52.756;6.906;2023-11-19T02:28:06;47.35;;;24.02;;
52210;SDS011;38179;52.756;6.906;2023-11-19T02:30:33;36.17;;;23.77;;
52210;SDS011;38179;52.756;6.906;2023-11-19T02:32:59;38.55;;;22.92;;
52210;SDS011;38179;52.756;6.906;2023-11-19T02:35:30;41.10;;;23.60;;
52210;SDS011;38179;52.756;6.906;2023-11-19T02:37:57;43.17;;;23.48;;
52210;SDS011;38179;52.756;6.906;2023-11-19T02:40:29;46.60;;;22.48;;
52210;SDS011;38179;52.756;6.906;2023-11-19T02:42:55;41.17;;;21.17;;
52210;SDS011;38179;52.756;6.906;2023-11-19T02:45:23;36.20;;;20.90;;
52210;SDS011;38179;52.756;6.906;2023-11-19T02:47:50;34.78;;;20.13;;
52210;SDS011;38179;52.756;6.906;2023-11-19T02:50:17;32.38;;;19.83;;
52210;SDS011;38179;52.756;6.906;2023-11-19T02:52:50;32.50;;;21.58;;
52210;SDS011;38179;52.756;6.906;2023-11-19T02:55:21;34.65;;;20.13;;
52210;SDS011;38179;52.756;6.906;2023-11-19T02:57:49;41.53;;;19.73;;
52210;SDS011;38179;52.756;6.906;2023-11-19T03:00:16;41.33;;;17.67;;
52210;SDS011;38179;52.756;6.906;2023-11-19T03:03:08;39.28;;;17.92;;
52210;SDS011;38179;52.756;6.906;2023-11-19T03:05:46;35.05;;;15.82;;
52210;SDS011;38179;52.756;6.906;2023-11-19T03:08:12;42.38;;;17.67;;
52210;SDS011;38179;52.756;6.906;2023-11-19T03:10:38;29.60;;;16.00;;
52210;SDS011;38179;52.756;6.906;2023-11-19T03:13:04;34.70;;;16.38;;
52210;SDS011;38179;52.756;6.906;2023-11-19T03:15:30;36.17;;;14.98;;
52210;SDS011;38179;52.756;6.906;2023-11-19T03:17:56;41.88;;;16.17;;
52210;SDS011;38179;52.756;6.906;2023-11-19T03:20:22;40.78;;;15.52;;
52210;SDS011;38179;52.756;6.906;2023-11-19T03:22:48;29.30;;;14.80;;
52210;SDS011;38179;52.756;6.906;2023-11-19T03:25:16;34.05;;;15.68;;
52210;SDS011;38179;52.756;6.906;2023-11-19T03:27:43;29.83;;;14.85;;
52210;SDS011;38179;52.756;6.906;2023-11-19T03:30:09;25.38;;;14.60;;
52210;SDS011;38179;52.756;6.906;2023-11-19T03:32:35;35.75;;;14.77;;
52210;SDS011;38179;52.756;6.906;2023-11-19T03:35:01;37.75;;;14.32;;
52210;SDS011;38179;52.756;6.906;2023-11-19T03:37:29;31.35;;;14.23;;
52210;SDS011;38179;52.756;6.906;2023-11-19T03:39:57;32.70;;;14.15;;
52210;SDS011;38179;52.756;6.906;2023-11-19T03:42:27;28.10;;;14.55;;
52210;SDS011;38179;52.756;6.906;2023-11-19T03:44:55;33.67;;;14.32;;
52210;SDS011;38179;52.756;6.906;2023-11-19T03:47:24;29.38;;;14.13;;
52210;SDS011;38179;52.756;6.906;2023-11-19T03:49:51;42.17;;;15.38;;
52210;SDS011;38179;52.756;6.906;2023-11-19T03:52:17;36.10;;;15.43;;
52210;SDS011;38179;52.756;6.906;2023-11-19T03:54:44;29.73;;;14.73;;
52210;SDS011;38179;52.756;6.906;2023-11-19T03:57:11;33.88;;;14.80;;
52210;SDS011;38179;52.756;6.906;2023-11-19T03:59:37;35.97;;;15.60;;
52210;SDS011;38179;52.756;6.906;2023-11-19T04:02:04;32.83;;;15.18;;
52210;SDS011;38179;52.756;6.906;2023-11-19T04:04:30;40.10;;;15.68;;
52210;SDS011;38179;52.756;6.906;2023-11-19T04:06:56;47.33;;;16.05;;
52210;SDS011;38179;52.756;6.906;2023-11-19T04:09:23;38.47;;;14.95;;
52210;SDS011;38179;52.756;6.906;2023-11-19T04:11:50;37.28;;;14.95;;
52210;SDS011;38179;52.756;6.906;2023-11-19T04:14:16;43.38;;;16.00;;
52210;SDS011;38179;52.756;6.906;2023-11-19T04:16:43;33.72;;;15.50;;
52210;SDS011;38179;52.756;6.906;2023-11-19T04:19:10;34.25;;;14.77;;
52210;SDS011;38179;52.756;6.906;2023-11-19T04:21:36;40.28;;;15.98;;
52210;SDS011;38179;52.756;6.906;2023-11-19T04:24:05;36.10;;;15.97;;
52210;SDS011;38179;52.756;6.906;2023-11-19T04:26:31;36.95;;;14.13;;
52210;SDS011;38179;52.756;6.906;2023-11-19T04:28:57;33.53;;;14.75;;
52210;SDS011;38179;52.756;6.906;2023-11-19T04:31:24;33.67;;;15.02;;
52210;SDS011;38179;52.756;6.906;2023-11-19T04:33:57;45.25;;;15.60;;
52210;SDS011;38179;52.756;6.906;2023-11-19T04:36:25;32.13;;;14.23;;
52210;SDS011;38179;52.756;6.906;2023-11-19T04:38:51;38.70;;;16.35;;
52210;SDS011;38179;52.756;6.906;2023-11-19T04:41:17;32.95;;;14.85;;
52210;SDS011;38179;52.756;6.906;2023-11-19T04:43:42;37.38;;;14.45;;
52210;SDS011;38179;52.756;6.906;2023-11-19T04:46:09;40.90;;;15.00;;
52210;SDS011;38179;52.756;6.906;2023-11-19T04:48:35;32.22;;;17.00;;
52210;SDS011;38179;52.756;6.906;2023-11-19T04:51:01;31.00;;;14.45;;
52210;SDS011;38179;52.756;6.906;2023-11-19T04:53:29;35.97;;;15.07;;
52210;SDS011;38179;52.756;6.906;2023-11-19T04:55:55;40.70;;;14.93;;
52210;SDS011;38179;52.756;6.906;2023-11-19T04:58:21;32.75;;;14.45;;
52210;SDS011;38179;52.756;6.906;2023-11-19T05:00:47;39.72;;;16.42;;
52210;SDS011;38179;52.756;6.906;2023-11-19T05:03:13;42.85;;;14.93;;
52210;SDS011;38179;52.756;6.906;2023-11-19T05:05:39;35.20;;;15.65;;
52210;SDS011;38179;52.756;6.906;2023-11-19T05:08:05;43.75;;;15.90;;
52210;SDS011;38179;52.756;6.906;2023-11-19T05:10:31;37.47;;;15.40;;
52210;SDS011;38179;52.756;6.906;2023-11-19T05:12:56;38.17;;;15.27;;
52210;SDS011;38179;52.756;6.906;2023-11-19T05:15:22;37.67;;;15.65;;
52210;SDS011;38179;52.756;6.906;2023-11-19T05:17:49;37.88;;;15.85;;
52210;SDS011;38179;52.756;6.906;2023-11-19T05:20:15;38.13;;;14.70;;
52210;SDS011;38179;52.756;6.906;2023-11-19T05:22:41;42.17;;;15.05;;
52210;SDS011;38179;52.756;6.906;2023-11-19T05:25:08;37.20;;;15.88;;
52210;SDS011;38179;52.756;6.906;2023-11-19T05:27:37;41.20;;;14.88;;
52210;SDS011;38179;52.756;6.906;2023-11-19T05:32:35;40.55;;;15.82;;
52210;SDS011;38179;52.756;6.906;2023-11-19T05:35:02;49.80;;;16.65;;
52210;SDS011;38179;52.756;6.906;2023-11-19T05:37:28;41.83;;;15.55;;
52210;SDS011;38179;52.756;6.906;2023-11-19T05:39:54;37.97;;;14.82;;
52210;SDS011;38179;52.756;6.906;2023-11-19T05:42:19;47.17;;;15.57;;
52210;SDS011;38179;52.756;6.906;2023-11-19T05:44:45;47.17;;;16.63;;
52210;SDS011;38179;52.756;6.906;2023-11-19T05:47:11;42.72;;;16.85;;
52210;SDS011;38179;52.756;6.906;2023-11-19T05:49:37;41.80;;;15.82;;
52210;SDS011;38179;52.756;6.906;2023-11-19T05:52:03;36.08;;;15.00;;
52210;SDS011;38179;52.756;6.906;2023-11-19T05:54:35;46.22;;;15.52;;
52210;SDS011;38179;52.756;6.906;2023-11-19T05:57:05;36.53;;;15.77;;
52210;SDS011;38179;52.756;6.906;2023-11-19T05:59:34;39.58;;;15.60;;
52210;SDS011;38179;52.756;6.906;2023-11-19T06:02:01;42.63;;;15.35;;
52210;SDS011;38179;52.756;6.906;2023-11-19T06:04:27;43.63;;;16.77;;
52210;SDS011;38179;52.756;6.906;2023-11-19T06:06:54;35.13;;;15.38;;
52210;SDS011;38179;52.756;6.906;2023-11-19T06:09:20;37.08;;;15.18;;
52210;SDS011;38179;52.756;6.906;2023-11-19T06:11:48;39.17;;;15.20;;
52210;SDS011;38179;52.756;6.906;2023-11-19T06:14:16;38.65;;;15.23;;
52210;SDS011;38179;52.756;6.906;2023-11-19T06:16:42;40.78;;;16.13;;
52210;SDS011;38179;52.756;6.906;2023-11-19T06:19:07;47.08;;;16.95;;
52210;SDS011;38179;52.756;6.906;2023-11-19T06:21:33;41.10;;;16.45;;
52210;SDS011;38179;52.756;6.906;2023-11-19T06:24:01;42.25;;;16.92;;
52210;SDS011;38179;52.756;6.906;2023-11-19T06:26:27;35.40;;;15.57;;
52210;SDS011;38179;52.756;6.906;2023-11-19T06:28:53;41.45;;;15.35;;
52210;SDS011;38179;52.756;6.906;2023-11-19T06:31:19;36.55;;;14.77;;
52210;SDS011;38179;52.756;6.906;2023-11-19T06:33:46;44.97;;;15.35;;
52210;SDS011;38179;52.756;6.906;2023-11-19T06:36:14;46.45;;;15.55;;
52210;SDS011;38179;52.756;6.906;2023-11-19T06:38:41;39.17;;;15.90;;
52210;SDS011;38179;52.756;6.906;2023-11-19T06:41:08;51.03;;;14.73;;
52210;SDS011;38179;52.756;6.906;2023-11-19T06:43:37;42.90;;;16.63;;
52210;SDS011;38179;52.756;6.906;2023-11-19T06:46:02;45.65;;;15.30;;
52210;SDS011;38179;52.756;6.906;2023-11-19T06:48:33;47.88;;;17.35;;
52210;SDS011;38179;52.756;6.906;2023-11-19T06:51:00;42.08;;;16.23;;
52210;SDS011;38179;52.756;6.906;2023-11-19T06:53:26;48.45;;;17.23;;
52210;SDS011;38179;52.756;6.906;2023-11-19T06:55:53;39.92;;;15.40;;
52210;SDS011;38179;52.756;6.906;2023-11-19T06:58:19;46.05;;;16.08;;
52210;SDS011;38179;52.756;6.906;2023-11-19T07:00:45;49.42;;;17.27;;
52210;SDS011;38179;52.756;6.906;2023-11-19T07:03:12;48.08;;;15.27;;
52210;SDS011;38179;52.756;6.906;2023-11-19T07:05:38;46.08;;;16.02;;
52210;SDS011;38179;52.756;6.906;2023-11-19T07:08:05;35.85;;;15.13;;
52210;SDS011;38179;52.756;6.906;2023-11-19T07:10:32;43.40;;;15.20;;
52210;SDS011;38179;52.756;6.906;2023-11-19T07:12:59;43.17;;;15.02;;
52210;SDS011;38179;52.756;6.906;2023-11-19T07:15:25;50.30;;;16.23;;
52210;SDS011;38179;52.756;6.906;2023-11-19T07:17:51;34.08;;;14.02;;
52210;SDS011;38179;52.756;6.906;2023-11-19T07:20:19;47.63;;;14.83;;
52210;SDS011;38179;52.756;6.906;2023-11-19T07:22:45;37.70;;;15.73;;
52210;SDS011;38179;52.756;6.906;2023-11-19T07:25:14;41.15;;;15.18;;
52210;SDS011;38179;52.756;6.906;2023-11-19T07:27:40;41.55;;;15.00;;
52210;SDS011;38179;52.756;6.906;2023-11-19T07:30:06;34.92;;;15.77;;
52210;SDS011;38179;52.756;6.906;2023-11-19T07:32:32;39.80;;;15.68;;
52210;SDS011;38179;52.756;6.906;2023-11-19T07:34:58;36.47;;;14.80;;
52210;SDS011;38179;52.756;6.906;2023-11-19T07:37:24;37.03;;;14.68;;
52210;SDS011;38179;52.756;6.906;2023-11-19T07:39:51;39.15;;;15.75;;
52210;SDS011;38179;52.756;6.906;2023-11-19T07:42:16;39.88;;;16.00;;
52210;SDS011;38179;52.756;6.906;2023-11-19T07:44:43;34.78;;;14.35;;
52210;SDS011;38179;52.756;6.906;2023-11-19T07:47:09;41.67;;;14.57;;
52210;SDS011;38179;52.756;6.906;2023-11-19T07:49:35;41.38;;;15.27;;
52210;SDS011;38179;52.756;6.906;2023-11-19T07:52:01;41.83;;;15.40;;
52210;SDS011;38179;52.756;6.906;2023-11-19T07:54:28;42.45;;;15.65;;
52210;SDS011;38179;52.756;6.906;2023-11-19T07:56:54;43.78;;;16.05;;
52210;SDS011;38179;52.756;6.906;2023-11-19T07:59:20;39.25;;;15.50;;
52210;SDS011;38179;52.756;6.906;2023-11-19T08:01:46;45.90;;;15.25;;
52210;SDS011;38179;52.756;6.906;2023-11-19T08:04:13;36.97;;;15.85;;
52210;SDS011;38179;52.756;6.906;2023-11-19T08:06:39;42.33;;;15.35;;
52210;SDS011;38179;52.756;6.906;2023-11-19T08:09:05;39.03;;;15.00;;
52210;SDS011;38179;52.756;6.906;2023-11-19T08:11:31;43.97;;;15.73;;
52210;SDS011;38179;52.756;6.906;2023-11-19T08:13:58;60.20;;;16.30;;
52210;SDS011;38179;52.756;6.906;2023-11-19T08:16:24;35.10;;;14.82;;
52210;SDS011;38179;52.756;6.906;2023-11-19T08:18:50;44.08;;;15.50;;
52210;SDS011;38179;52.756;6.906;2023-11-19T08:21:16;41.35;;;14.88;;
52210;SDS011;38179;52.756;6.906;2023-11-19T08:23:42;46.15;;;15.85;;
52210;SDS011;38179;52.756;6.906;2023-11-19T08:26:08;29.40;;;13.55;;
52210;SDS011;38179;52.756;6.906;2023-11-19T08:28:34;40.75;;;15.77;;
52210;SDS011;38179;52.756;6.906;2023-11-19T08:31:01;37.33;;;14.00;;
52210;SDS011;38179;52.756;6.906;2023-11-19T08:33:29;41.53;;;15.43;;
52210;SDS011;38179;52.756;6.906;2023-11-19T08:35:55;38.00;;;15.27;;
52210;SDS011;38179;52.756;6.906;2023-11-19T08:38:21;37.30;;;15.02;;
52210;SDS011;38179;52.756;6.906;2023-11-19T08:40:47;42.30;;;16.73;;
52210;SDS011;38179;52.756;6.906;2023-11-19T08:43:12;41.00;;;15.48;;
52210;SDS011;38179;52.756;6.906;2023-11-19T08:45:38;42.45;;;15.27;;
52210;SDS011;38179;52.756;6.906;2023-11-19T08:48:04;41.10;;;14.95;;
52210;SDS011;38179;52.756;6.906;2023-11-19T08:50:30;32.05;;;13.82;;
52210;SDS011;38179;52.756;6.906;2023-11-19T08:52:56;47.20;;;16.00;;
52210;SDS011;38179;52.756;6.906;2023-11-19T08:55:22;50.92;;;16.25;;
52210;SDS011;38179;52.756;6.906;2023-11-19T08:57:48;41.95;;;15.52;;
52210;SDS011;38179;52.756;6.906;2023-11-19T09:00:14;47.45;;;16.17;;
52210;SDS011;38179;52.756;6.906;2023-11-19T09:02:40;44.90;;;15.93;;
52210;SDS011;38179;52.756;6.906;2023-11-19T09:05:05;31.25;;;14.82;;
52210;SDS011;38179;52.756;6.906;2023-11-19T09:07:34;41.75;;;15.90;;
52210;SDS011;38179;52.756;6.906;2023-11-19T09:10:00;38.45;;;14.80;;
52210;SDS011;38179;52.756;6.906;2023-11-19T09:12:26;32.60;;;16.02;;
52210;SDS011;38179;52.756;6.906;2023-11-19T09:14:52;46.03;;;14.77;;
52210;SDS011;38179;52.756;6.906;2023-11-19T09:17:19;39.33;;;16.23;;
52210;SDS011;38179;52.756;6.906;2023-11-19T09:19:45;44.63;;;14.70;;
52210;SDS011;38179;52.756;6.906;2023-11-19T09:22:10;40.47;;;15.40;;
52210;SDS011;38179;52.756;6.906;2023-11-19T09:24:36;41.35;;;15.77;;
52210;SDS011;38179;52.756;6.906;2023-11-19T09:27:03;48.58;;;15.45;;
52210;SDS011;38179;52.756;6.906;2023-11-19T09:29:31;47.15;;;15.80;;
52210;SDS011;38179;52.756;6.906;2023-11-19T09:31:58;40.53;;;15.50;;
52210;SDS011;38179;52.756;6.906;2023-11-19T09:34:23;43.47;;;14.88;;
52210;SDS011;38179;52.756;6.906;2023-11-19T09:36:50;42.83;;;15.65;;
52210;SDS011;38179;52.756;6.906;2023-11-19T09:39:15;40.15;;;15.07;;
52210;SDS011;38179;52.756;6.906;2023-11-19T09:41:43;53.22;;;16.48;;
52210;SDS011;38179;52.756;6.906;2023-11-19T09:44:13;31.77;;;14.57;;
52210;SDS011;38179;52.756;6.906;2023-11-19T09:46:42;37.30;;;15.18;;
52210;SDS011;38179;52.756;6.906;2023-11-19T09:49:08;47.03;;;15.60;;
52210;SDS011;38179;52.756;6.906;2023-11-19T09:51:35;39.33;;;16.02;;
52210;SDS011;38179;52.756;6.906;2023-11-19T09:54:02;45.88;;;15.82;;
52210;SDS011;38179;52.756;6.906;2023-11-19T09:56:31;37.75;;;15.02;;
52210;SDS011;38179;52.756;6.906;2023-11-19T09:59:01;38.35;;;14.80;;
52210;SDS011;38179;52.756;6.906;2023-11-19T10:01:27;41.90;;;15.32;;
52210;SDS011;38179;52.756;6.906;2023-11-19T10:03:53;48.95;;;16.67;;
52210;SDS011;38179;52.756;6.906;2023-11-19T10:06:21;46.17;;;15.20;;
52210;SDS011;38179;52.756;6.906;2023-11-19T10:08:48;47.65;;;16.10;;
52210;SDS011;38179;52.756;6.906;2023-11-19T10:11:13;32.65;;;14.48;;
52210;SDS011;38179;52.756;6.906;2023-11-19T10:13:40;39.05;;;15.73;;
52210;SDS011;38179;52.756;6.906;2023-11-19T10:16:13;38.55;;;15.05;;
52210;SDS011;38179;52.756;6.906;2023-11-19T10:18:46;41.78;;;15.65;;
52210;SDS011;38179;52.756;6.906;2023-11-19T10:21:14;35.88;;;14.52;;
52210;SDS011;38179;52.756;6.906;2023-11-19T10:23:52;36.50;;;17.20;;
52210;SDS011;38179;52.756;6.906;2023-11-19T10:26:21;40.92;;;15.85;;
52210;SDS011;38179;52.756;6.906;2023-11-19T10:28:47;47.15;;;16.13;;
52210;SDS011;38179;52.756;6.906;2023-11-19T10:31:14;44.95;;;17.38;;
52210;SDS011;38179;52.756;6.906;2023-11-19T10:33:43;41.95;;;15.93;;
52210;SDS011;38179;52.756;6.906;2023-11-19T10:36:11;38.10;;;14.60;;
52210;SDS011;38179;52.756;6.906;2023-11-19T10:38:37;48.40;;;16.88;;
52210;SDS011;38179;52.756;6.906;2023-11-19T10:41:04;44.03;;;15.52;;
52210;SDS011;38179;52.756;6.906;2023-11-19T10:43:30;42.03;;;15.88;;
52210;SDS011;38179;52.756;6.906;2023-11-19T10:46:14;39.83;;;15.27;;
52210;SDS011;38179;52.756;6.906;2023-11-19T10:48:46;43.88;;;15.23;;
52210;SDS011;38179;52.756;6.906;2023-11-19T10:51:12;37.28;;;14.73;;
52210;SDS011;38179;52.756;6.906;2023-11-19T10:53:46;41.63;;;15.13;;
52210;SDS011;38179;52.756;6.906;2023-11-19T10:56:16;47.38;;;16.33;;
52210;SDS011;38179;52.756;6.906;2023-11-19T10:58:45;38.83;;;15.10;;
52210;SDS011;38179;52.756;6.906;2023-11-19T11:01:15;37.25;;;14.38;;
52210;SDS011;38179;52.756;6.906;2023-11-19T11:03:45;35.70;;;15.85;;
52210;SDS011;38179;52.756;6.906;2023-11-19T11:06:12;38.30;;;15.57;;
52210;SDS011;38179;52.756;6.906;2023-11-19T11:08:38;36.72;;;14.30;;
52210;SDS011;38179;52.756;6.906;2023-11-19T11:11:05;43.88;;;15.52;;
52210;SDS011;38179;52.756;6.906;2023-11-19T11:13:33;47.38;;;15.50;;
52210;SDS011;38179;52.756;6.906;2023-11-19T11:15:59;32.08;;;14.85;;
52210;SDS011;38179;52.756;6.906;2023-11-19T11:18:25;36.53;;;15.32;;
52210;SDS011;38179;52.756;6.906;2023-11-19T11:20:54;32.08;;;15.02;;
52210;SDS011;38179;52.756;6.906;2023-11-19T11:26:10;43.42;;;15.13;;
52210;SDS011;38179;52.756;6.906;2023-11-19T11:28:48;37.35;;;14.55;;
52210;SDS011;38179;52.756;6.906;2023-11-19T11:37:27;40.25;;;15.82;;
52210;SDS011;38179;52.756;6.906;2023-11-19T11:40:04;41.15;;;15.13;;
52210;SDS011;38179;52.756;6.906;2023-11-19T11:42:36;34.65;;;14.55;;
52210;SDS011;38179;52.756;6.906;2023-11-19T11:45:05;41.78;;;14.85;;
52210;SDS011;38179;52.756;6.906;2023-11-19T11:55:34;35.03;;;14.82;;
52210;SDS011;38179;52.756;6.906;2023-11-19T12:00:47;41.70;;;15.60;;
52210;SDS011;38179;52.756;6.906;2023-11-19T12:03:13;41.38;;;16.20;;
52210;SDS011;38179;52.756;6.906;2023-11-19T12:05:46;39.58;;;14.38;;
52210;SDS011;38179;52.756;6.906;2023-11-19T12:08:13;34.67;;;15.25;;
52210;SDS011;38179;52.756;6.906;2023-11-19T12:10:52;39.00;;;15.32;;
52210;SDS011;38179;52.756;6.906;2023-11-19T12:13:20;40.13;;;14.63;;
52210;SDS011;38179;52.756;6.906;2023-11-19T12:18:27;34.10;;;14.82;;
52210;SDS011;38179;52.756;6.906;2023-11-19T12:20:54;34.38;;;14.20;;
52210;SDS011;38179;52.756;6.906;2023-11-19T12:23:21;38.05;;;15.95;;
52210;SDS011;38179;52.756;6.906;2023-11-19T12:25:48;34.20;;;13.80;;
52210;SDS011;38179;52.756;6.906;2023-11-19T12:28:14;37.78;;;15.02;;
52210;SDS011;38179;52.756;6.906;2023-11-19T12:30:44;36.35;;;14.95;;
52210;SDS011;38179;52.756;6.906;2023-11-19T12:33:13;37.58;;;15.50;;
52210;SDS011;38179;52.756;6.906;2023-11-19T12:35:46;41.55;;;15.35;;
52210;SDS011;38179;52.756;6.906;2023-11-19T12:38:19;41.55;;;15.57;;
52210;SDS011;38179;52.756;6.906;2023-11-19T12:40:46;37.83;;;16.13;;
52210;SDS011;38179;52.756;6.906;2023-11-19T12:43:21;40.00;;;15.05;;
52210;SDS011;38179;52.756;6.906;2023-11-19T12:45:47;42.75;;;15.95;;
52210;SDS011;38179;52.756;6.906;2023-11-19T12:48:13;40.45;;;14.38;;
52210;SDS011;38179;52.756;6.906;2023-11-19T12:50:58;35.50;;;14.82;;
52210;SDS011;38179;52.756;6.906;2023-11-19T12:53:25;41.60;;;15.25;;
52210;SDS011;38179;52.756;6.906;2023-11-19T12:55:52;36.30;;;14.98;;
52210;SDS011;38179;52.756;6.906;2023-11-19T12:58:35;33.78;;;15.25;;
52210;SDS011;38179;52.756;6.906;2023-11-19T13:01:02;35.28;;;15.00;;
52210;SDS011;38179;52.756;6.906;2023-11-19T13:03:33;39.92;;;16.25;;
52210;SDS011;38179;52.756;6.906;2023-11-19T13:06:04;37.15;;;14.98;;
52210;SDS011;38179;52.756;6.906;2023-11-19T13:08:42;37.50;;;14.05;;
52210;SDS011;38179;52.756;6.906;2023-11-19T13:11:10;32.85;;;15.25;;
52210;SDS011;38179;52.756;6.906;2023-11-19T13:16:26;35.80;;;14.48;;
52210;SDS011;38179;52.756;6.906;2023-11-19T13:18:52;44.88;;;15.15;;
52210;SDS011;38179;52.756;6.906;2023-11-19T13:21:18;33.65;;;15.02;;
52210;SDS011;38179;52.756;6.906;2023-11-19T13:23:44;35.15;;;14.77;;
52210;SDS011;38179;52.756;6.906;2023-11-19T13:26:10;33.47;;;14.35;;
52210;SDS011;38179;52.756;6.906;2023-11-19T13:28:37;34.80;;;13.98;;
52210;SDS011;38179;52.756;6.906;2023-11-19T13:31:03;33.53;;;14.80;;
52210;SDS011;38179;52.756;6.906;2023-11-19T13:33:29;35.65;;;15.30;;
52210;SDS011;38179;52.756;6.906;2023-11-19T13:35:56;31.63;;;14.90;;
52210;SDS011;38179;52.756;6.906;2023-11-19T13:38:22;33.33;;;13.57;;
52210;SDS011;38179;52.756;6.906;2023-11-19T13:43:16;34.97;;;14.38;;
52210;SDS011;38179;52.756;6.906;2023-11-19T13:45:42;35.33;;;14.23;;
52210;SDS011;38179;52.756;6.906;2023-11-19T13:48:08;36.05;;;15.07;;
52210;SDS011;38179;52.756;6.906;2023-11-19T13:50:34;45.47;;;15.02;;
52210;SDS011;38179;52.756;6.906;2023-11-19T13:53:00;36.13;;;16.52;;
52210;SDS011;38179;52.756;6.906;2023-11-19T13:55:26;35.10;;;14.20;;
52210;SDS011;38179;52.756;6.906;2023-11-19T13:57:52;34.92;;;14.13;;
52210;SDS011;38179;52.756;6.906;2023-11-19T14:00:18;32.85;;;14.07;;
52210;SDS011;38179;52.756;6.906;2023-11-19T14:02:44;33.42;;;13.60;;
52210;SDS011;38179;52.756;6.906;2023-11-19T14:05:12;36.53;;;14.87;;
52210;SDS011;38179;52.756;6.906;2023-11-19T14:07:39;32.45;;;13.93;;
52210;SDS011;38179;52.756;6.906;2023-11-19T14:10:06;39.85;;;15.02;;
52210;SDS011;38179;52.756;6.906;2023-11-19T14:12:41;31.40;;;13.73;;
52210;SDS011;38179;52.756;6.906;2023-11-19T14:15:08;37.03;;;15.23;;
52210;SDS011;38179;52.756;6.906;2023-11-19T14:17:37;31.52;;;13.80;;
52210;SDS011;38179;52.756;6.906;2023-11-19T14:20:04;29.70;;;13.75;;
52210;SDS011;38179;52.756;6.906;2023-11-19T14:22:48;28.45;;;13.27;;
52210;SDS011;38179;52.756;6.906;2023-11-19T14:27:44;34.10;;;13.43;;
52210;SDS011;38179;52.756;6.906;2023-11-19T14:30:11;32.28;;;14.45;;
52210;SDS011;38179;52.756;6.906;2023-11-19T14:32:41;31.25;;;13.02;;
52210;SDS011;38179;52.756;6.906;2023-11-19T14:35:09;36.88;;;13.07;;
52210;SDS011;38179;52.756;6.906;2023-11-19T14:37:35;33.30;;;14.38;;
52210;SDS011;38179;52.756;6.906;2023-11-19T14:40:02;34.58;;;13.55;;
52210;SDS011;38179;52.756;6.906;2023-11-19T14:42:32;30.85;;;13.95;;
52210;SDS011;38179;52.756;6.906;2023-11-19T14:44:58;36.00;;;14.65;;
52210;SDS011;38179;52.756;6.906;2023-11-19T14:47:24;27.52;;;13.68;;
52210;SDS011;38179;52.756;6.906;2023-11-19T14:49:50;34.55;;;14.70;;
52210;SDS011;38179;52.756;6.906;2023-11-19T14:52:16;38.42;;;14.80;;
52210;SDS011;38179;52.756;6.906;2023-11-19T14:54:42;32.80;;;14.43;;
52210;SDS011;38179;52.756;6.906;2023-11-19T14:57:09;33.67;;;14.07;;